Time;durP1;ratioP1;P1;durP2;ratioP2;P2;SDS_P1;SDS_P2;PMS_P1;PMS_P2;Temp;Humidity;BMP_temperature;BMP_pressure;BME280_temperature;BME280_humidity;BME280_pressure;Samples;Min_cycle;Max_cycle;Signal;HPM_P1;HPM_P2
2022/03/31 00:01:03;;;;;;;;;30.00;26.50;;;;;;;;2;261078563;261078563;-90
2022/03/31 00:09:19;;;;;;;;;29.50;29.00;;;;;;;;2;261077113;261077113;-89
2022/03/31 00:18:19;;;;;;;;;36.00;31.50;;;;;;;;2;261075179;261075179;-90
2022/03/31 00:26:35;;;;;;;;;40.50;27.00;;;;;;;;2;261073995;261073995;-90
2022/03/31 00:35:35;;;;;;;;;48.50;31.00;;;;;;;;2;261076401;261076401;-90
2022/03/31 00:43:50;;;;;;;;;30.00;26.00;;;;;;;;2;261075241;261075241;-90
2022/03/31 00:52:51;;;;;;;;;48.00;20.50;;;;;;;;2;261076442;261076442;-91
2022/03/31 01:01:08;;;;;;;;;27.00;27.00;;;;;;;;2;261075127;261075127;-90
2022/03/31 01:10:10;;;;;;;;;27.00;27.00;;;;;;;;2;261075867;261075867;-90
2022/03/31 01:18:25;;;;;;;;;34.00;19.00;;;;;;;;2;261074535;261074535;-90
2022/03/31 01:27:26;;;;;;;;;26.50;26.50;;;;;;;;2;261076575;261076575;-90
2022/03/31 01:35:41;;;;;;;;;20.00;20.00;;;;;;;;2;261076632;261076632;-88
2022/03/31 01:44:42;;;;;;;;;25.50;21.50;;;;;;;;2;261078307;261078307;-90
2022/03/31 01:52:57;;;;;;;;;20.00;20.00;;;;;;;;2;261076631;261076631;-90
2022/03/31 02:01:57;;;;;;;;;26.00;18.50;;;;;;;;2;261073286;261073286;-90
2022/03/31 02:10:13;;;;;;;;;59.50;24.50;;;;;;;;2;260962300;260962300;-90
2022/03/31 02:19:14;;;;;;;;;39.50;23.50;;;;;;;;2;261073084;261073084;-90
2022/03/31 02:27:29;;;;;;;;;24.50;24.50;;;;;;;;2;261073930;261073930;-90
2022/03/31 02:36:30;;;;;;;;;48.50;27.50;;;;;;;;2;261072672;261072672;-90
2022/03/31 02:44:46;;;;;;;;;45.00;39.00;;;;;;;;2;261071832;261071832;-90
2022/03/31 03:02:40;;;;;;;;;38.50;30.00;;;;;;;;2;261076958;261076958;-89
2022/03/31 03:11:40;;;;;;;;;31.50;30.50;;;;;;;;2;261074379;261074379;-90
2022/03/31 03:19:56;;;;;;;;;41.50;37.00;;;;;;;;2;261077572;261077572;-89
2022/03/31 03:28:57;;;;;;;;;34.00;32.00;;;;;;;;2;261078217;261078217;-90
2022/03/31 03:37:13;;;;;;;;;49.50;36.50;;;;;;;;2;261077970;261077970;-90
2022/03/31 03:46:13;;;;;;;;;36.00;32.00;;;;;;;;2;261079646;261079646;-91
2022/03/31 03:54:29;;;;;;;;;56.00;31.00;;;;;;;;2;261077448;261077448;-89
2022/03/31 04:03:29;;;;;;;;;53.50;33.50;;;;;;;;2;261076090;261076090;-91
2022/03/31 04:11:45;;;;;;;;;43.00;22.50;;;;;;;;2;261077403;261077403;-89
2022/03/31 04:20:45;;;;;;;;;47.00;31.50;;;;;;;;2;261077533;261077533;-89
2022/03/31 04:29:08;;;;;;;;;30.00;29.50;;;;;;;;2;261075968;261075968;-89
2022/03/31 04:38:09;;;;;;;;;46.50;33.50;;;;;;;;2;261076889;261076889;-90
2022/03/31 04:46:24;;;;;;;;;30.00;23.50;;;;;;;;2;261073091;261073091;-90
2022/03/31 04:55:25;;;;;;;;;50.00;29.00;;;;;;;;2;261076138;261076138;-90
2022/03/31 05:03:41;;;;;;;;;58.00;35.00;;;;;;;;2;261074946;261074946;-90
2022/03/31 05:12:41;;;;;;;;;29.00;25.00;;;;;;;;2;261077281;261077281;-89
2022/03/31 05:20:56;;;;;;;;;61.50;39.50;;;;;;;;2;261074827;261074827;-90
2022/03/31 05:29:57;;;;;;;;;34.50;32.50;;;;;;;;2;261076063;261076063;-89
2022/03/31 05:38:12;;;;;;;;;47.00;39.00;;;;;;;;2;261076212;261076212;-88
2022/03/31 05:47:12;;;;;;;;;49.50;41.00;;;;;;;;2;261077993;261077993;-88
2022/03/31 05:55:28;;;;;;;;;33.00;29.00;;;;;;;;2;261078640;261078640;-90
2022/03/31 06:04:29;;;;;;;;;50.50;41.50;;;;;;;;2;261077392;261077392;-90
2022/03/31 06:12:44;;;;;;;;;62.50;40.00;;;;;;;;2;261076113;261076113;-90
2022/03/31 06:21:45;;;;;;;;;63.00;44.50;;;;;;;;2;261074505;261074505;-90
2022/03/31 06:30:00;;;;;;;;;65.00;48.00;;;;;;;;2;261077423;261077423;-89
2022/03/31 06:39:00;;;;;;;;;48.50;41.50;;;;;;;;2;261079712;261079712;-90
2022/03/31 06:47:16;;;;;;;;;52.50;37.00;;;;;;;;2;261078353;261078353;-91
2022/03/31 06:56:18;;;;;;;;;54.00;43.00;;;;;;;;2;261079828;261079828;-88
2022/03/31 07:04:33;;;;;;;;;64.50;45.00;;;;;;;;2;261079602;261079602;-86
2022/03/31 07:13:34;;;;;;;;;57.50;41.50;;;;;;;;2;261082277;261082277;-86
2022/03/31 07:21:51;;;;;;;;;43.00;37.00;;;;;;;;2;261080670;261080670;-86
2022/03/31 07:30:53;;;;;;;;;60.50;44.50;;;;;;;;2;261083414;261083414;-89
2022/03/31 07:39:08;;;;;;;;;50.50;35.50;;;;;;;;2;261079935;261079935;-87
2022/03/31 07:48:09;;;;;;;;;46.00;31.50;;;;;;;;2;261080238;261080238;-88
2022/03/31 07:56:25;;;;;;;;;34.50;29.00;;;;;;;;2;261076204;261076204;-89
2022/03/31 08:05:27;;;;;;;;;47.50;34.00;;;;;;;;2;261084216;261084216;-86
2022/03/31 08:13:42;;;;;;;;;35.00;33.00;;;;;;;;2;261080874;261080874;-85
2022/03/31 08:22:43;;;;;;;;;52.50;37.50;;;;;;;;2;261082070;261082070;-86
2022/03/31 08:30:59;;;;;;;;;62.00;43.00;;;;;;;;2;261080040;261080040;-86
2022/03/31 08:39:59;;;;;;;;;18.50;18.50;;;;;;;;2;261083624;261083624;-86
2022/03/31 08:48:15;;;;;;;;;20.00;20.00;;;;;;;;2;261079135;261079135;-85
2022/03/31 09:05:52;;;;;;;;;15.00;15.00;;;;;;;;176993;27;261073677;-84
2022/03/31 09:14:54;;;;;;;;;4.00;4.00;;;;;;;;2;261082534;261082534;-85
2022/03/31 09:23:19;;;;;;;;;16.50;11.00;;;;;;;;2;261078856;261078856;-84
2022/03/31 09:32:21;;;;;;;;;6.50;6.50;;;;;;;;2;261077174;261077174;-85
2022/03/31 09:40:36;;;;;;;;;11.50;11.50;;;;;;;;2;261079396;261079396;-85
2022/03/31 09:49:37;;;;;;;;;6.00;6.00;;;;;;;;2;261080212;261080212;-85
2022/03/31 09:57:55;;;;;;;;;8.00;8.00;;;;;;;;2;261084125;261084125;-85
2022/03/31 10:06:55;;;;;;;;;5.50;5.50;;;;;;;;2;261080220;261080220;-85
2022/03/31 10:15:16;;;;;;;;;8.00;8.00;;;;;;;;2;261082434;261082434;-85
2022/03/31 10:32:58;;;;;;;;;14.50;2.50;;;;;;;;2;261077715;261077715;-86
2022/03/31 10:42:03;;;;;;;;;14.50;3.00;;;;;;;;2;261076104;261076104;-84
2022/03/31 10:50:24;;;;;;;;;7.50;7.50;;;;;;;;2;261080335;261080335;-85
2022/03/31 10:59:25;;;;;;;;;4.50;4.50;;;;;;;;2;261075774;261075774;-86
2022/03/31 11:07:41;;;;;;;;;6.00;6.00;;;;;;;;2;261080845;261080845;-85
2022/03/31 11:16:41;;;;;;;;;11.50;3.50;;;;;;;;2;261078478;261078478;-85
2022/03/31 11:25:09;;;;;;;;;3.50;3.50;;;;;;;;2;261075379;261075379;-86
2022/03/31 11:34:17;;;;;;;;;15.00;3.00;;;;;;;;2;261074942;261074942;-85
2022/03/31 11:42:32;;;;;;;;;5.00;5.00;;;;;;;;2;261080798;261080798;-85
2022/03/31 11:51:33;;;;;;;;;8.00;8.00;;;;;;;;2;261078549;261078549;-86
2022/03/31 11:59:49;;;;;;;;;3.50;3.50;;;;;;;;2;261078561;261078561;-86
2022/03/31 12:08:49;;;;;;;;;10.00;6.00;;;;;;;;2;261077163;261077163;-85
2022/03/31 12:17:06;;;;;;;;;7.50;7.50;;;;;;;;2;261078596;261078596;-89
2022/03/31 12:26:22;;;;;;;;;6.00;6.00;;;;;;;;2;261079158;261079158;-89
2022/03/31 12:34:38;;;;;;;;;4.00;4.00;;;;;;;;2;261074385;261074385;-94
2022/03/31 12:43:39;;;;;;;;;5.50;5.50;;;;;;;;2;261073815;261073815;-94
2022/03/31 12:51:55;;;;;;;;;6.50;6.50;;;;;;;;2;261073012;261073012;-94
2022/03/31 13:00:55;;;;;;;;;4.00;4.00;;;;;;;;2;261077478;261077478;-93
2022/03/31 13:09:11;;;;;;;;;2.50;2.50;;;;;;;;2;261075531;261075531;-93
2022/03/31 13:18:11;;;;;;;;;5.50;5.50;;;;;;;;2;261074017;261074017;-93
2022/03/31 13:26:27;;;;;;;;;5.00;5.00;;;;;;;;2;261077424;261077424;-93
2022/03/31 13:35:28;;;;;;;;;17.50;5.50;;;;;;;;2;261075578;261075578;-93
2022/03/31 13:43:43;;;;;;;;;8.00;8.00;;;;;;;;2;261070079;261070079;-93
2022/03/31 13:52:45;;;;;;;;;4.50;4.50;;;;;;;;2;261071851;261071851;-92
2022/03/31 14:01:12;;;;;;;;;19.00;7.00;;;;;;;;2;261073700;261073700;-91
2022/03/31 14:10:13;;;;;;;;;2.00;2.00;;;;;;;;2;261073287;261073287;-93
2022/03/31 14:18:33;;;;;;;;;9.00;2.50;;;;;;;;2;261076686;261076686;-91
2022/03/31 14:27:36;;;;;;;;;16.00;4.00;;;;;;;;2;261072810;261072810;-93
2022/03/31 14:35:51;;;;;;;;;3.50;3.50;;;;;;;;2;261077300;261077300;-93
2022/03/31 14:44:52;;;;;;;;;2.50;2.50;;;;;;;;2;261075836;261075836;-93
2022/03/31 14:53:10;;;;;;;;;2.50;2.50;;;;;;;;2;261077459;261077459;-95
2022/03/31 15:02:11;;;;;;;;;2.50;2.50;;;;;;;;2;261077034;261077034;-96
2022/03/31 15:19:46;;;;;;;;;2.00;2.00;;;;;;;;2;261073985;261073985;-95
2022/03/31 15:28:01;;;;;;;;;2.00;2.00;;;;;;;;2;261077991;261077991;-95
2022/03/31 15:37:02;;;;;;;;;1.00;1.00;;;;;;;;2;261075317;261075317;-95
2022/03/31 15:45:18;;;;;;;;;6.00;6.00;;;;;;;;2;261083161;261083161;-94
2022/03/31 15:54:18;;;;;;;;;3.50;3.50;;;;;;;;2;261077432;261077432;-96
2022/03/31 16:02:34;;;;;;;;;4.00;4.00;;;;;;;;2;261076236;261076236;-94
2022/03/31 16:11:34;;;;;;;;;3.50;3.50;;;;;;;;2;261078963;261078963;-94
2022/03/31 16:19:50;;;;;;;;;4.00;4.00;;;;;;;;2;261071689;261071689;-95
2022/03/31 16:28:53;;;;;;;;;1.50;1.50;;;;;;;;2;261073352;261073352;-93
2022/03/31 16:37:09;;;;;;;;;5.50;1.50;;;;;;;;2;261074139;261074139;-95
2022/03/31 16:46:10;;;;;;;;;5.00;2.00;;;;;;;;2;261073060;261073060;-95
2022/03/31 16:54:26;;;;;;;;;0.00;0.00;;;;;;;;2;261073509;261073509;-95
2022/03/31 17:03:26;;;;;;;;;3.50;3.50;;;;;;;;2;261079513;261079513;-96
2022/03/31 17:11:42;;;;;;;;;0.00;0.00;;;;;;;;2;261073293;261073293;-96
2022/03/31 17:20:44;;;;;;;;;0.50;0.50;;;;;;;;2;261071292;261071292;-95
2022/03/31 17:29:00;;;;;;;;;13.50;1.50;;;;;;;;2;261069163;261069163;-95
2022/03/31 17:38:00;;;;;;;;;3.50;0.50;;;;;;;;2;261057512;261057512;-94
2022/03/31 17:46:15;;;;;;;;;0.50;0.50;;;;;;;;2;261061493;261061493;-94
2022/03/31 17:55:17;;;;;;;;;1.50;1.50;;;;;;;;2;261061546;261061546;-93
2022/03/31 18:03:33;;;;;;;;;1.50;1.50;;;;;;;;2;261068002;261068002;-93
2022/03/31 18:12:33;;;;;;;;;2.00;2.00;;;;;;;;2;261065424;261065424;-94
2022/03/31 18:20:49;;;;;;;;;3.00;3.00;;;;;;;;2;261065042;261065042;-95
2022/03/31 18:38:26;;;;;;;;;4.00;4.00;;;;;;;;2;261071602;261071602;-96
2022/03/31 18:47:27;;;;;;;;;1.50;1.50;;;;;;;;2;261072287;261072287;-95
2022/03/31 18:55:45;;;;;;;;;1.00;1.00;;;;;;;;2;261077553;261077553;-91
2022/03/31 19:04:45;;;;;;;;;3.50;3.50;;;;;;;;2;261075293;261075293;-90
2022/03/31 19:13:01;;;;;;;;;0.50;0.50;;;;;;;;2;261077425;261077425;-89
2022/03/31 19:22:02;;;;;;;;;4.00;4.00;;;;;;;;2;261076052;261076052;-91
2022/03/31 19:30:18;;;;;;;;;0.00;0.00;;;;;;;;2;261075446;261075446;-91
2022/03/31 19:39:18;;;;;;;;;3.50;3.50;;;;;;;;2;261077106;261077106;-89
2022/03/31 19:47:35;;;;;;;;;3.00;3.00;;;;;;;;2;261078253;261078253;-92
2022/03/31 19:56:35;;;;;;;;;2.00;2.00;;;;;;;;2;261079531;261079531;-92
2022/03/31 20:04:51;;;;;;;;;1.00;1.00;;;;;;;;2;261081002;261081002;-92
2022/03/31 20:13:51;;;;;;;;;1.50;1.50;;;;;;;;2;261079921;261079921;-91
2022/03/31 20:22:06;;;;;;;;;2.00;2.00;;;;;;;;2;261077701;261077701;-93
2022/03/31 20:31:08;;;;;;;;;3.50;3.50;;;;;;;;2;261076940;261076940;-91
2022/03/31 20:39:23;;;;;;;;;2.50;2.50;;;;;;;;2;261076813;261076813;-93
2022/03/31 20:48:25;;;;;;;;;13.50;1.50;;;;;;;;2;261077022;261077022;-92
2022/03/31 20:56:40;;;;;;;;;1.50;1.50;;;;;;;;2;261078242;261078242;-92
2022/03/31 21:05:41;;;;;;;;;1.00;1.00;;;;;;;;2;261079449;261079449;-90
2022/03/31 21:13:57;;;;;;;;;2.00;2.00;;;;;;;;2;261079739;261079739;-91
2022/03/31 21:22:57;;;;;;;;;2.50;2.50;;;;;;;;2;261078215;261078215;-93
2022/03/31 21:31:13;;;;;;;;;1.50;1.50;;;;;;;;2;261078683;261078683;-88
2022/03/31 21:40:14;;;;;;;;;3.50;3.50;;;;;;;;2;261076439;261076439;-87
2022/03/31 21:48:29;;;;;;;;;1.50;1.50;;;;;;;;2;261074015;261074015;-91
2022/03/31 21:57:30;;;;;;;;;15.00;1.00;;;;;;;;2;261074833;261074833;-96
2022/03/31 22:05:58;;;;;;;;;0.50;0.50;;;;;;;;2;261064899;261064899;-95
2022/03/31 22:14:59;;;;;;;;;2.00;2.00;;;;;;;;2;261061119;261061119;-96
2022/03/31 22:23:17;;;;;;;;;0.00;0.00;;;;;;;;2;261073742;261073742;-94
2022/03/31 22:32:17;;;;;;;;;3.50;3.50;;;;;;;;2;261078138;261078138;-93
2022/03/31 22:40:33;;;;;;;;;2.50;2.50;;;;;;;;2;261076847;261076847;-95
2022/03/31 22:49:33;;;;;;;;;13.00;1.00;;;;;;;;2;261073988;261073988;-96
2022/03/31 22:57:49;;;;;;;;;1.50;1.50;;;;;;;;2;261075885;261075885;-95
2022/03/31 23:06:49;;;;;;;;;0.00;0.00;;;;;;;;2;261072802;261072802;-96
2022/03/31 23:15:05;;;;;;;;;0.00;0.00;;;;;;;;2;261074594;261074594;-95
2022/03/31 23:24:06;;;;;;;;;3.00;3.00;;;;;;;;2;261070503;261070503;-96
2022/03/31 23:32:21;;;;;;;;;0.00;0.00;;;;;;;;2;261076342;261076342;-96
2022/03/31 23:41:22;;;;;;;;;0.00;0.00;;;;;;;;2;261077086;261077086;-96
2022/03/31 23:49:37;;;;;;;;;2.50;2.50;;;;;;;;2;261073886;261073886;-96
2022/03/31 23:58:38;;;;;;;;;0.50;0.50;;;;;;;;2;261076401;261076401;-95
